createdAt,value
2022-10-22T00:00:18.783Z,9.30
2022-10-22T00:00:50.594Z,9.29
2022-10-22T00:01:22.989Z,9.29
2022-10-22T00:01:54.693Z,9.28
2022-10-22T00:02:27.829Z,9.29
2022-10-22T00:02:59.663Z,9.29
2022-10-22T00:03:31.241Z,9.27
2022-10-22T00:04:02.750Z,9.26
2022-10-22T00:04:35.662Z,9.27
2022-10-22T00:05:07.933Z,9.27
2022-10-22T00:05:39.565Z,9.23
2022-10-22T00:06:11.085Z,9.22
2022-10-22T00:06:44.967Z,9.22
2022-10-22T00:07:18.053Z,9.22
2022-10-22T00:07:49.528Z,9.26
2022-10-22T00:08:21.056Z,9.27
2022-10-22T00:08:53.037Z,9.25
2022-10-22T00:09:24.593Z,9.24
2022-10-22T00:09:56.361Z,9.26
2022-10-22T00:10:27.979Z,9.25
2022-10-22T00:10:59.443Z,9.29
2022-10-22T00:11:30.959Z,9.31
2022-10-22T00:12:02.467Z,9.32
2022-10-22T00:12:34.196Z,9.34
2022-10-22T00:13:05.984Z,9.32
2022-10-22T00:13:37.553Z,9.32
2022-10-22T00:14:09.369Z,9.35
2022-10-22T00:14:41.006Z,9.36
2022-10-22T00:15:12.619Z,9.38
2022-10-22T00:15:44.307Z,9.39
2022-10-22T00:16:15.884Z,9.39
2022-10-22T00:16:47.425Z,9.39
2022-10-22T00:17:18.958Z,9.39
2022-10-22T00:17:50.616Z,9.38
2022-10-22T00:18:22.138Z,9.37
2022-10-22T00:18:53.707Z,9.38
2022-10-22T00:19:25.285Z,9.37
2022-10-22T00:19:56.842Z,9.34
2022-10-22T00:20:28.513Z,9.33
2022-10-22T00:21:00.094Z,9.32
2022-10-22T00:21:31.644Z,9.28
2022-10-22T00:22:05.713Z,9.29
2022-10-22T00:22:37.274Z,9.28
2022-10-22T00:23:08.881Z,9.35
2022-10-22T00:23:42.590Z,9.32
2022-10-22T00:24:14.163Z,9.27
2022-10-22T00:24:45.659Z,9.29
2022-10-22T00:25:17.168Z,9.28
2022-10-22T00:25:48.695Z,9.24
2022-10-22T00:26:20.341Z,9.26
2022-10-22T00:26:52.159Z,9.29
2022-10-22T00:27:23.778Z,9.26
2022-10-22T00:27:55.317Z,9.27
2022-10-22T00:28:26.928Z,9.28
2022-10-22T00:28:58.630Z,9.28
2022-10-22T00:29:30.333Z,9.31
2022-10-22T00:30:01.892Z,9.32
2022-10-22T00:30:33.504Z,9.33
2022-10-22T00:31:05.912Z,9.36
2022-10-22T00:31:37.630Z,9.36
2022-10-22T00:32:09.230Z,9.37
2022-10-22T00:32:40.939Z,9.38
2022-10-22T00:33:12.893Z,9.40
2022-10-22T00:33:46.897Z,9.40
2022-10-22T00:34:21.253Z,9.45
2022-10-22T00:34:52.769Z,9.47
2022-10-22T00:35:24.411Z,9.49
2022-10-22T00:35:56.179Z,9.50
2022-10-22T00:36:27.962Z,9.48
2022-10-22T00:36:59.525Z,9.47
2022-10-22T00:37:31.416Z,9.46
2022-10-22T00:38:02.991Z,9.39
2022-10-22T00:38:34.886Z,9.37
2022-10-22T00:39:06.403Z,9.37
2022-10-22T00:39:37.930Z,9.37
2022-10-22T00:40:10.334Z,9.41
2022-10-22T00:40:41.991Z,9.44
2022-10-22T00:41:13.566Z,9.49
2022-10-22T00:41:47.195Z,9.49
2022-10-22T00:42:21.278Z,9.48
2022-10-22T00:42:52.797Z,9.47
2022-10-22T00:43:24.594Z,9.46
2022-10-22T00:44:01.441Z,9.46
2022-10-22T00:45:01.564Z,9.43
2022-10-22T00:45:33.128Z,9.39
2022-10-22T00:46:04.809Z,9.40
2022-10-22T00:46:36.385Z,9.35
2022-10-22T00:47:07.948Z,9.32
2022-10-22T00:47:43.101Z,9.32
2022-10-22T00:48:22.390Z,9.33
2022-10-22T00:48:55.366Z,9.34
2022-10-22T00:49:26.911Z,9.34
2022-10-22T00:49:59.190Z,9.30
2022-10-22T00:50:52.660Z,9.38
2022-10-22T00:51:26.248Z,9.37
2022-10-22T00:51:58.015Z,9.38
2022-10-22T00:52:29.547Z,9.37
2022-10-22T00:53:02.838Z,9.37
2022-10-22T00:53:38.206Z,9.39
2022-10-22T00:54:10.022Z,9.39
2022-10-22T00:54:42.480Z,9.38
2022-10-22T00:55:14.748Z,9.36
2022-10-22T00:55:48.281Z,9.37
2022-10-22T00:56:20.845Z,9.34
2022-10-22T00:56:52.405Z,9.34
2022-10-22T00:57:24.042Z,9.32
2022-10-22T00:57:56.796Z,9.30
2022-10-22T00:58:30.082Z,9.28
2022-10-22T00:59:02.385Z,9.27
2022-10-22T00:59:34.001Z,9.25
2022-10-22T01:00:06.806Z,9.30
2022-10-22T01:00:38.432Z,9.41
2022-10-22T01:01:14.471Z,9.41
2022-10-22T01:01:46.840Z,9.40
2022-10-22T01:02:18.509Z,9.39
2022-10-22T01:02:51.616Z,9.41
2022-10-22T01:03:23.745Z,9.37
2022-10-22T01:03:55.807Z,9.35
2022-10-22T01:04:27.348Z,9.33
2022-10-22T01:04:58.911Z,9.32
2022-10-22T01:05:33.319Z,9.28
2022-10-22T01:06:06.077Z,9.25
2022-10-22T01:06:37.621Z,9.22
2022-10-22T01:07:16.965Z,9.20
2022-10-22T01:07:51.764Z,9.18
2022-10-22T01:08:36.952Z,9.17
2022-10-22T01:09:26.624Z,9.16
2022-10-22T01:10:13.336Z,9.13
2022-10-22T01:10:54.700Z,9.11
2022-10-22T01:11:44.436Z,9.08
2022-10-22T01:12:24.584Z,9.04
2022-10-22T01:13:08.013Z,8.97
2022-10-22T01:14:02.552Z,9.03
2022-10-22T01:15:06.014Z,9.00
2022-10-22T01:15:42.753Z,9.02
2022-10-22T01:16:24.501Z,9.02
2022-10-22T01:17:06.770Z,9.05
2022-10-22T01:18:10.865Z,9.05
2022-10-22T01:19:03.682Z,9.06
2022-10-22T01:20:12.006Z,9.05
2022-10-22T01:20:58.351Z,9.19
2022-10-22T01:21:44.448Z,9.25
2022-10-22T01:22:16.073Z,9.24
2022-10-22T01:23:09.102Z,9.21
2022-10-22T01:24:07.970Z,9.19
2022-10-22T01:24:59.104Z,9.17
2022-10-22T01:26:05.254Z,9.17
2022-10-22T01:27:00.460Z,9.15
2022-10-22T01:27:43.807Z,9.15
2022-10-22T01:28:54.603Z,9.14
2022-10-22T01:29:30.897Z,9.14
2022-10-22T01:30:10.562Z,9.08
2022-10-22T01:30:42.829Z,9.09
2022-10-22T01:31:16.046Z,9.09
2022-10-22T01:31:53.459Z,9.09
2022-10-22T01:32:26.276Z,9.07
2022-10-22T01:33:01.819Z,9.06
2022-10-22T01:33:33.831Z,9.08
2022-10-22T01:34:06.587Z,9.05
2022-10-22T01:34:40.246Z,9.05
2022-10-22T01:35:14.520Z,9.04
2022-10-22T01:35:46.449Z,9.06
2022-10-22T01:36:19.254Z,9.08
2022-10-22T01:36:51.989Z,9.07
2022-10-22T01:37:26.856Z,9.07
2022-10-22T01:38:00.966Z,9.09
2022-10-22T01:38:32.861Z,9.11
2022-10-22T01:39:05.546Z,9.10
2022-10-22T01:39:38.081Z,9.10
2022-10-22T01:40:11.039Z,9.09
2022-10-22T01:40:43.011Z,9.08
2022-10-22T01:41:14.999Z,9.08
2022-10-22T01:41:46.802Z,9.06
2022-10-22T01:42:18.528Z,9.05
2022-10-22T01:43:01.912Z,9.03
2022-10-22T01:43:33.521Z,8.99
2022-10-22T01:44:05.029Z,8.99
2022-10-22T01:44:37.381Z,9.00
2022-10-22T01:45:14.261Z,9.01
2022-10-22T01:45:51.377Z,8.99
2022-10-22T01:46:24.711Z,8.98
2022-10-22T01:47:25.254Z,8.98
2022-10-22T01:48:04.320Z,8.98
2022-10-22T01:49:08.655Z,8.97
2022-10-22T01:50:06.352Z,8.91
2022-10-22T01:50:44.276Z,8.93
2022-10-22T01:51:25.095Z,8.95
2022-10-22T01:52:28.870Z,8.93
2022-10-22T01:53:19.318Z,8.92
2022-10-22T01:54:05.000Z,8.93
2022-10-22T01:54:53.533Z,8.91
2022-10-22T01:55:36.449Z,8.92
2022-10-22T01:56:21.005Z,8.93
2022-10-22T01:56:58.182Z,8.95
2022-10-22T01:58:18.880Z,8.94
2022-10-22T01:59:22.452Z,8.92
2022-10-22T02:00:01.679Z,8.88
2022-10-22T02:00:38.875Z,8.89
2022-10-22T02:01:16.222Z,8.88
2022-10-22T02:02:02.659Z,8.87
2022-10-22T02:02:52.579Z,8.86
2022-10-22T02:03:34.443Z,8.84
2022-10-22T02:04:17.531Z,8.81
2022-10-22T02:04:58.128Z,8.77
2022-10-22T02:05:38.820Z,8.77
2022-10-22T02:06:14.911Z,8.77
2022-10-22T02:06:48.286Z,8.76
2022-10-22T02:07:23.443Z,8.73
2022-10-22T02:08:10.396Z,8.75
2022-10-22T02:08:43.332Z,8.74
2022-10-22T02:09:16.253Z,8.76
2022-10-22T02:09:49.298Z,8.78
2022-10-22T02:10:21.758Z,8.80
2022-10-22T02:10:53.592Z,8.80
2022-10-22T02:11:25.095Z,8.81
2022-10-22T02:11:57.356Z,8.79
2022-10-22T02:12:29.568Z,8.79
2022-10-22T02:13:01.615Z,8.79
2022-10-22T02:13:54.356Z,8.77
2022-10-22T02:14:28.705Z,8.78
2022-10-22T02:15:00.852Z,8.78
2022-10-22T02:15:33.300Z,8.77
2022-10-22T02:16:07.669Z,8.75
2022-10-22T02:16:44.257Z,8.79
2022-10-22T02:17:20.443Z,8.81
2022-10-22T02:17:53.364Z,8.84
2022-10-22T02:18:28.404Z,8.83
2022-10-22T02:19:03.744Z,8.84
2022-10-22T02:19:57.263Z,8.85
2022-10-22T02:20:32.008Z,8.85
2022-10-22T02:21:03.638Z,8.86
2022-10-22T02:21:35.558Z,8.85
2022-10-22T02:22:07.482Z,8.84
2022-10-22T02:22:40.220Z,8.82
2022-10-22T02:23:12.311Z,8.83
2022-10-22T02:23:44.286Z,8.81
2022-10-22T02:24:16.572Z,8.79
2022-10-22T02:24:49.077Z,8.78
2022-10-22T02:25:22.518Z,8.76
2022-10-22T02:26:02.529Z,8.78
2022-10-22T02:26:40.549Z,8.76
2022-10-22T02:27:24.232Z,8.74
2022-10-22T02:28:13.634Z,8.74
2022-10-22T02:29:02.448Z,8.73
2022-10-22T02:29:35.760Z,8.74
2022-10-22T02:30:13.372Z,8.75
2022-10-22T02:30:48.707Z,8.74
2022-10-22T02:31:24.761Z,8.79
2022-10-22T02:31:58.696Z,8.84
2022-10-22T02:32:45.494Z,8.84
2022-10-22T02:33:20.849Z,8.82
2022-10-22T02:33:55.174Z,8.81
2022-10-22T02:34:30.826Z,8.80
2022-10-22T02:35:03.252Z,8.79
2022-10-22T02:35:35.562Z,8.80
2022-10-22T02:36:08.089Z,8.80
2022-10-22T02:36:40.970Z,8.76
2022-10-22T02:37:12.626Z,8.76
2022-10-22T02:37:44.304Z,8.77
2022-10-22T02:38:16.315Z,8.77
2022-10-22T02:38:49.348Z,8.74
2022-10-22T02:39:21.390Z,8.73
2022-10-22T02:39:53.598Z,8.75
2022-10-22T02:40:25.639Z,8.74
2022-10-22T02:40:57.659Z,8.72
2022-10-22T02:41:29.713Z,8.71
2022-10-22T02:42:02.460Z,8.71
2022-10-22T02:42:35.010Z,8.72
2022-10-22T02:43:06.755Z,8.73
2022-10-22T02:43:50.373Z,8.71
2022-10-22T02:44:22.503Z,8.71
2022-10-22T02:44:54.187Z,8.72
2022-10-22T02:45:25.743Z,8.72
2022-10-22T02:45:57.411Z,8.72
2022-10-22T02:46:31.012Z,8.71
2022-10-22T02:47:02.539Z,8.70
2022-10-22T02:47:34.055Z,8.68
2022-10-22T02:48:05.975Z,8.66
2022-10-22T02:48:37.911Z,8.63
2022-10-22T02:49:09.547Z,8.63
2022-10-22T02:49:41.074Z,8.60
2022-10-22T02:50:12.783Z,8.60
2022-10-22T02:50:44.276Z,8.60
2022-10-22T02:51:15.830Z,8.59
2022-10-22T02:51:47.328Z,8.58
2022-10-22T02:52:19.153Z,8.57
2022-10-22T02:52:50.991Z,8.58
2022-10-22T02:53:22.543Z,8.57
2022-10-22T02:53:54.114Z,8.55
2022-10-22T02:54:25.825Z,8.53
2022-10-22T02:54:57.336Z,8.52
2022-10-22T02:55:28.912Z,8.52
2022-10-22T02:56:00.669Z,8.53
2022-10-22T02:56:33.045Z,8.51
2022-10-22T02:57:04.856Z,8.52
2022-10-22T02:57:36.395Z,8.52
2022-10-22T02:58:07.932Z,8.51
2022-10-22T02:58:39.580Z,8.49
2022-10-22T02:59:11.157Z,8.50
2022-10-22T02:59:42.777Z,8.50
2022-10-22T03:00:14.711Z,8.51
2022-10-22T03:00:46.267Z,8.49
2022-10-22T03:01:17.995Z,8.48
2022-10-22T03:01:49.645Z,8.48
2022-10-22T03:02:21.187Z,8.48
2022-10-22T03:02:52.694Z,8.45
2022-10-22T03:03:24.195Z,8.42
2022-10-22T03:03:55.689Z,8.45
2022-10-22T03:04:27.312Z,8.47
2022-10-22T03:04:59.006Z,8.47
2022-10-22T03:05:30.508Z,8.46
2022-10-22T03:06:02.072Z,8.46
2022-10-22T03:06:33.595Z,8.47
2022-10-22T03:07:05.155Z,8.47
2022-10-22T03:07:36.809Z,8.46
2022-10-22T03:08:08.324Z,8.45
2022-10-22T03:08:40.899Z,8.44
2022-10-22T03:09:13.175Z,8.46
2022-10-22T03:09:44.817Z,8.50
2022-10-22T03:10:16.394Z,8.51
2022-10-22T03:10:47.901Z,8.50
2022-10-22T03:11:19.433Z,8.48
2022-10-22T03:11:51.242Z,8.48
2022-10-22T03:12:22.763Z,8.49
2022-10-22T03:12:54.551Z,8.47
2022-10-22T03:13:26.195Z,8.45
2022-10-22T03:13:57.680Z,8.44
2022-10-22T03:14:29.191Z,8.48
2022-10-22T03:15:00.815Z,8.47
2022-10-22T03:15:32.355Z,8.46
2022-10-22T03:16:04.054Z,8.44
2022-10-22T03:16:35.573Z,8.46
2022-10-22T03:17:07.145Z,8.46
2022-10-22T03:17:38.904Z,8.42
2022-10-22T03:18:10.764Z,8.37
2022-10-22T03:18:42.321Z,8.36
2022-10-22T03:19:13.853Z,8.36
2022-10-22T03:19:45.350Z,8.36
2022-10-22T03:20:17.060Z,8.36
2022-10-22T03:20:48.613Z,8.41
2022-10-22T03:21:31.024Z,8.40
2022-10-22T03:22:05.894Z,8.42
2022-10-22T03:22:38.862Z,8.42
2022-10-22T03:23:11.942Z,8.44
2022-10-22T03:23:43.809Z,8.46
2022-10-22T03:24:18.381Z,8.51
2022-10-22T03:24:53.066Z,8.53
2022-10-22T03:25:27.425Z,8.57
2022-10-22T03:26:00.816Z,8.55
2022-10-22T03:26:32.792Z,8.54
2022-10-22T03:27:04.533Z,8.53
2022-10-22T03:27:37.578Z,8.52
2022-10-22T03:28:11.121Z,8.52
2022-10-22T03:28:43.079Z,8.50
2022-10-22T03:29:15.892Z,8.53
2022-10-22T03:29:48.403Z,8.52
2022-10-22T03:30:20.127Z,8.48
2022-10-22T03:30:51.640Z,8.41
2022-10-22T03:31:23.302Z,8.42
2022-10-22T03:31:54.940Z,8.40
2022-10-22T03:32:26.459Z,8.38
2022-10-22T03:32:57.997Z,8.34
2022-10-22T03:33:29.473Z,8.36
2022-10-22T03:34:01.117Z,8.33
2022-10-22T03:34:32.903Z,8.33
2022-10-22T03:35:05.635Z,8.31
2022-10-22T03:35:42.795Z,8.31
2022-10-22T03:36:14.355Z,8.28
2022-10-22T03:36:46.614Z,8.28
2022-10-22T03:37:18.315Z,8.29
2022-10-22T03:37:50.417Z,8.30
2022-10-22T03:38:21.970Z,8.29
2022-10-22T03:38:54.002Z,8.31
2022-10-22T03:39:26.163Z,8.31
2022-10-22T03:39:57.807Z,8.32
2022-10-22T03:40:29.393Z,8.33
2022-10-22T03:41:00.970Z,8.34
2022-10-22T03:41:33.122Z,8.35
2022-10-22T03:42:05.981Z,8.34
2022-10-22T03:42:37.521Z,8.34
2022-10-22T03:43:09.138Z,8.32
2022-10-22T03:43:41.149Z,8.32
2022-10-22T03:44:13.057Z,8.31
2022-10-22T03:44:44.692Z,8.32
2022-10-22T03:45:16.315Z,8.33
2022-10-22T03:45:47.838Z,8.38
2022-10-22T03:46:20.342Z,8.36
2022-10-22T03:46:52.074Z,8.37
2022-10-22T03:47:26.657Z,8.39
2022-10-22T03:47:58.216Z,8.36
2022-10-22T03:48:29.940Z,8.36
2022-10-22T03:49:01.473Z,8.38
2022-10-22T03:49:33.046Z,8.36
2022-10-22T03:50:05.359Z,8.35
2022-10-22T03:50:36.873Z,8.33
2022-10-22T03:51:08.572Z,8.32
2022-10-22T03:51:40.069Z,8.30
2022-10-22T03:52:13.744Z,8.28
2022-10-22T03:52:45.277Z,8.28
2022-10-22T03:53:16.831Z,8.29
2022-10-22T03:53:48.457Z,8.30
2022-10-22T03:54:20.015Z,8.29
2022-10-22T03:54:51.590Z,8.32
2022-10-22T03:55:23.117Z,8.32
2022-10-22T03:55:54.642Z,8.30
2022-10-22T03:56:26.157Z,8.33
2022-10-22T03:56:57.805Z,8.33
2022-10-22T03:57:29.447Z,8.32
2022-10-22T03:58:01.008Z,8.33
2022-10-22T03:58:32.498Z,8.33
2022-10-22T03:59:04.320Z,8.31
2022-10-22T03:59:37.413Z,8.32
2022-10-22T04:00:10.735Z,8.28
2022-10-22T04:00:42.894Z,8.27
2022-10-22T04:01:14.618Z,8.25
2022-10-22T04:01:46.205Z,8.22
2022-10-22T04:02:17.759Z,8.22
2022-10-22T04:02:49.430Z,8.22
2022-10-22T04:03:20.964Z,8.22
2022-10-22T04:03:53.091Z,8.21
2022-10-22T04:04:24.647Z,8.21
2022-10-22T04:04:56.129Z,8.22
2022-10-22T04:05:28.054Z,8.22
2022-10-22T04:06:08.594Z,8.21
2022-10-22T04:06:40.081Z,8.20
2022-10-22T04:07:11.627Z,8.22
2022-10-22T04:07:43.323Z,8.24
2022-10-22T04:08:15.531Z,8.25
2022-10-22T04:08:47.944Z,8.27
2022-10-22T04:09:19.489Z,8.28
2022-10-22T04:09:51.113Z,8.29
2022-10-22T04:10:22.606Z,8.29
2022-10-22T04:10:54.153Z,8.29
2022-10-22T04:11:25.662Z,8.30
2022-10-22T04:11:57.174Z,8.29
2022-10-22T04:12:28.704Z,8.26
2022-10-22T04:13:00.241Z,8.23
2022-10-22T04:13:31.965Z,8.21
2022-10-22T04:14:03.505Z,8.22
2022-10-22T04:14:35.440Z,8.22
2022-10-22T04:15:07.703Z,8.24
2022-10-22T04:15:39.678Z,8.22
2022-10-22T04:16:12.368Z,8.23
2022-10-22T04:16:43.875Z,8.23
2022-10-22T04:17:15.592Z,8.22
2022-10-22T04:17:47.111Z,8.22
2022-10-22T04:18:22.730Z,8.19
2022-10-22T04:18:54.230Z,8.20
2022-10-22T04:19:25.763Z,8.18
2022-10-22T04:19:57.252Z,8.18
2022-10-22T04:20:28.742Z,8.21
2022-10-22T04:21:00.265Z,8.25
2022-10-22T04:21:31.802Z,8.28
2022-10-22T04:22:03.508Z,8.28
2022-10-22T04:22:35.318Z,8.27
2022-10-22T04:23:06.916Z,8.28
2022-10-22T04:23:38.847Z,8.25
2022-10-22T04:24:10.773Z,8.26
2022-10-22T04:24:42.369Z,8.27
2022-10-22T04:25:13.916Z,8.29
2022-10-22T04:25:45.428Z,8.31
2022-10-22T04:26:17.915Z,8.30
2022-10-22T04:26:49.433Z,8.28
2022-10-22T04:27:21.068Z,8.27
2022-10-22T04:27:52.570Z,8.28
2022-10-22T04:28:24.140Z,8.29
2022-10-22T04:28:55.677Z,8.27
2022-10-22T04:29:27.283Z,8.24
2022-10-22T04:29:59.008Z,8.22
2022-10-22T04:30:30.479Z,8.24
2022-10-22T04:31:11.453Z,8.25
2022-10-22T04:31:42.930Z,8.26
2022-10-22T04:32:14.455Z,8.27
2022-10-22T04:32:45.965Z,8.27
2022-10-22T04:33:18.565Z,8.19
2022-10-22T04:33:54.779Z,8.23
2022-10-22T04:34:29.631Z,8.22
2022-10-22T04:35:01.218Z,8.21
2022-10-22T04:35:32.785Z,8.24
2022-10-22T04:36:20.758Z,8.20
2022-10-22T04:36:52.297Z,8.24
2022-10-22T04:37:24.775Z,8.26
2022-10-22T04:37:56.400Z,8.29
2022-10-22T04:38:27.925Z,8.30
2022-10-22T04:39:01.377Z,8.34
2022-10-22T04:39:32.918Z,8.33
2022-10-22T04:40:05.084Z,8.39
2022-10-22T04:40:36.681Z,8.32
2022-10-22T04:41:16.818Z,8.31
2022-10-22T04:41:48.344Z,8.40
2022-10-22T04:42:20.008Z,8.41
2022-10-22T04:42:51.579Z,8.40
2022-10-22T04:43:23.097Z,8.40
2022-10-22T04:43:55.961Z,8.43
2022-10-22T04:44:27.673Z,8.41
2022-10-22T04:44:59.272Z,8.37
2022-10-22T04:45:30.844Z,8.38
2022-10-22T04:46:02.389Z,8.42
2022-10-22T04:46:35.536Z,8.41
2022-10-22T04:47:07.066Z,8.38
2022-10-22T04:47:38.856Z,8.40
2022-10-22T04:48:10.945Z,8.41
2022-10-22T04:48:43.658Z,8.39
2022-10-22T04:49:15.228Z,8.41
2022-10-22T04:49:46.762Z,8.39
2022-10-22T04:50:18.443Z,8.38
2022-10-22T04:50:50.049Z,8.36
2022-10-22T04:51:22.949Z,8.38
2022-10-22T04:51:54.629Z,8.41
2022-10-22T04:52:26.118Z,8.36
2022-10-22T04:52:57.704Z,8.36
2022-10-22T04:53:29.224Z,8.38
2022-10-22T04:54:00.841Z,8.40
2022-10-22T04:54:33.238Z,8.43
2022-10-22T04:55:05.364Z,8.61
2022-10-22T04:55:36.896Z,8.59
2022-10-22T04:56:16.844Z,8.63
2022-10-22T04:56:48.477Z,8.62
2022-10-22T04:57:20.148Z,8.63
2022-10-22T04:57:51.681Z,8.61
2022-10-22T04:58:23.227Z,8.61
2022-10-22T04:59:03.315Z,8.62
2022-10-22T04:59:34.808Z,8.59
2022-10-22T05:00:07.115Z,8.56
2022-10-22T05:00:38.653Z,8.60
2022-10-22T05:01:20.726Z,8.58
2022-10-22T05:01:52.263Z,8.58
2022-10-22T05:02:23.867Z,8.59
2022-10-22T05:02:55.384Z,8.61
2022-10-22T05:03:26.902Z,8.64
2022-10-22T05:04:01.086Z,8.61
2022-10-22T05:04:32.703Z,8.61
2022-10-22T05:05:04.515Z,8.63
2022-10-22T05:05:36.176Z,8.62
2022-10-22T05:06:08.888Z,8.62
2022-10-22T05:06:40.661Z,8.65
2022-10-22T05:07:12.225Z,8.66
2022-10-22T05:07:43.938Z,8.69
2022-10-22T05:08:15.690Z,8.66
2022-10-22T05:08:47.966Z,8.66
2022-10-22T05:09:20.679Z,8.65
2022-10-22T05:09:53.470Z,8.71
2022-10-22T05:10:25.022Z,8.72
2022-10-22T05:10:56.550Z,8.75
2022-10-22T05:11:31.149Z,8.82
2022-10-22T05:12:02.699Z,8.82
2022-10-22T05:12:35.206Z,8.82
2022-10-22T05:13:06.740Z,8.80
2022-10-22T05:13:38.833Z,8.84
2022-10-22T05:14:10.633Z,8.90
2022-10-22T05:14:44.681Z,8.91
2022-10-22T05:15:16.585Z,8.92
2022-10-22T05:15:48.104Z,8.96
2022-10-22T05:16:19.814Z,9.03
2022-10-22T05:16:52.054Z,9.12
2022-10-22T05:17:23.587Z,9.35
2022-10-22T05:17:55.136Z,9.25
2022-10-22T05:18:26.742Z,9.26
2022-10-22T05:18:59.793Z,9.28
2022-10-22T05:19:33.299Z,9.24
2022-10-22T05:20:05.758Z,9.24
2022-10-22T05:20:40.576Z,9.27
2022-10-22T05:21:16.960Z,9.29
2022-10-22T05:21:48.526Z,9.29
2022-10-22T05:22:20.015Z,9.30
2022-10-22T05:22:51.560Z,9.28
2022-10-22T05:23:23.259Z,9.29
2022-10-22T05:23:55.762Z,9.28
2022-10-22T05:24:29.097Z,9.36
2022-10-22T05:25:00.947Z,9.36
2022-10-22T05:25:32.588Z,9.44
2022-10-22T05:26:08.765Z,9.42
2022-10-22T05:26:40.293Z,9.50
2022-10-22T05:27:11.818Z,9.46
2022-10-22T05:27:43.586Z,9.47
2022-10-22T05:28:15.299Z,9.41
2022-10-22T05:28:48.336Z,9.36
2022-10-22T05:29:20.241Z,9.38
2022-10-22T05:29:51.954Z,9.42
2022-10-22T05:30:23.517Z,9.45
2022-10-22T05:30:59.188Z,9.44
2022-10-22T05:31:30.702Z,9.39
2022-10-22T05:32:02.222Z,9.38
2022-10-22T05:32:35.457Z,9.37
2022-10-22T05:33:06.948Z,9.35
2022-10-22T05:33:38.899Z,9.30
2022-10-22T05:34:10.589Z,9.28
2022-10-22T05:34:42.137Z,9.37
2022-10-22T05:35:13.720Z,9.60
2022-10-22T05:35:46.787Z,9.54
2022-10-22T05:36:21.606Z,9.50
2022-10-22T05:36:53.159Z,9.48
2022-10-22T05:37:24.672Z,9.53
2022-10-22T05:38:28.749Z,9.64
2022-10-22T05:39:00.361Z,9.58
2022-10-22T05:39:31.889Z,9.73
2022-10-22T05:40:18.980Z,9.81
2022-10-22T05:41:07.462Z,9.79
2022-10-22T05:41:39.181Z,9.83
2022-10-22T05:42:10.676Z,9.83
2022-10-22T05:42:42.387Z,9.80
2022-10-22T05:43:14.148Z,9.84
2022-10-22T05:43:46.234Z,9.85
2022-10-22T05:44:17.794Z,9.80
2022-10-22T05:44:49.347Z,9.78
2022-10-22T05:45:20.891Z,9.74
2022-10-22T05:45:52.498Z,9.87
2022-10-22T05:46:26.194Z,9.83
2022-10-22T05:46:57.705Z,9.87
2022-10-22T05:47:30.336Z,9.96
2022-10-22T05:48:01.912Z,9.99
2022-10-22T05:48:33.776Z,10.05
2022-10-22T05:49:08.120Z,10.08
2022-10-22T05:49:39.686Z,10.12
2022-10-22T05:50:11.250Z,10.13
2022-10-22T05:50:42.762Z,10.05
2022-10-22T05:51:14.335Z,9.96
2022-10-22T05:51:46.832Z,9.99
2022-10-22T05:52:18.407Z,10.14
2022-10-22T05:52:51.984Z,10.14
2022-10-22T05:53:23.695Z,10.13
2022-10-22T05:53:57.405Z,10.20
2022-10-22T05:54:28.941Z,10.19
2022-10-22T05:55:00.551Z,10.18
2022-10-22T05:55:40.594Z,10.14
2022-10-22T05:56:15.236Z,10.18
2022-10-22T05:56:46.871Z,10.25
2022-10-22T05:57:18.453Z,10.19
2022-10-22T05:57:50.254Z,10.11
2022-10-22T05:58:21.907Z,10.16
2022-10-22T05:58:54.029Z,10.12
2022-10-22T05:59:25.604Z,10.09
2022-10-22T05:59:57.095Z,10.14
2022-10-22T06:00:28.797Z,10.18
2022-10-22T06:01:19.473Z,10.21
2022-10-22T06:01:51.151Z,10.30
2022-10-22T06:02:22.774Z,10.24
2022-10-22T06:02:54.298Z,10.23
2022-10-22T06:03:25.986Z,10.14
2022-10-22T06:03:59.536Z,10.13
2022-10-22T06:04:31.093Z,10.11
2022-10-22T06:05:02.672Z,10.12
2022-10-22T06:05:37.684Z,10.18
2022-10-22T06:06:34.199Z,10.24
2022-10-22T06:07:05.735Z,10.29
2022-10-22T06:07:37.357Z,10.26
2022-10-22T06:08:16.745Z,10.27
2022-10-22T06:08:51.986Z,10.26
2022-10-22T06:09:30.177Z,10.27
2022-10-22T06:10:02.181Z,10.24
2022-10-22T06:10:33.697Z,10.27
2022-10-22T06:11:05.386Z,10.36
2022-10-22T06:11:37.062Z,10.33
2022-10-22T06:12:10.922Z,10.30
2022-10-22T06:12:42.855Z,10.29
2022-10-22T06:13:14.575Z,10.27
2022-10-22T06:13:46.421Z,10.26
2022-10-22T06:14:19.083Z,10.27
2022-10-22T06:14:50.615Z,10.28
2022-10-22T06:15:22.124Z,10.28
2022-10-22T06:15:53.713Z,10.26
2022-10-22T06:16:25.281Z,10.28
2022-10-22T06:16:59.801Z,10.28
2022-10-22T06:17:31.626Z,10.27
2022-10-22T06:18:03.465Z,10.23
2022-10-22T06:18:35.086Z,10.18
2022-10-22T06:19:07.823Z,10.25
2022-10-22T06:19:39.335Z,10.24
2022-10-22T06:20:11.516Z,10.24
2022-10-22T06:20:43.771Z,10.26
2022-10-22T06:21:16.149Z,10.25
2022-10-22T06:21:48.434Z,10.25
2022-10-22T06:22:19.929Z,10.20
2022-10-22T06:22:51.421Z,10.17
2022-10-22T06:23:22.975Z,10.21
2022-10-22T06:23:56.623Z,10.17
2022-10-22T06:24:28.118Z,10.24
2022-10-22T06:24:59.681Z,10.17
2022-10-22T06:25:31.254Z,10.15
2022-10-22T06:26:03.288Z,10.15
2022-10-22T06:26:35.285Z,10.17
2022-10-22T06:27:06.831Z,10.17
2022-10-22T06:27:38.349Z,10.20
2022-10-22T06:28:10.170Z,10.23
2022-10-22T06:28:41.697Z,10.27
2022-10-22T06:29:13.221Z,10.34
2022-10-22T06:29:44.733Z,10.43
2022-10-22T06:30:16.382Z,10.40
2022-10-22T06:30:47.865Z,10.36
2022-10-22T06:31:19.835Z,10.45
2022-10-22T06:31:51.349Z,10.41
2022-10-22T06:32:22.938Z,10.43
2022-10-22T06:32:54.650Z,10.44
2022-10-22T06:33:27.374Z,10.47
2022-10-22T06:33:58.980Z,10.48
2022-10-22T06:34:30.517Z,10.43
2022-10-22T06:35:02.043Z,10.42
2022-10-22T06:35:33.569Z,10.39
2022-10-22T06:36:10.386Z,10.41
2022-10-22T06:36:43.989Z,10.43
2022-10-22T06:37:15.897Z,10.37
2022-10-22T06:37:47.814Z,10.39
2022-10-22T06:38:19.606Z,10.41
2022-10-22T06:38:52.853Z,10.42
2022-10-22T06:39:24.491Z,10.43
2022-10-22T06:39:56.001Z,10.49
2022-10-22T06:40:27.522Z,10.54
2022-10-22T06:41:06.422Z,10.61
2022-10-22T06:41:37.991Z,10.66
2022-10-22T06:42:09.591Z,10.62
2022-10-22T06:42:41.508Z,10.63
2022-10-22T06:43:14.369Z,10.68
2022-10-22T06:43:46.929Z,10.73
2022-10-22T06:44:21.262Z,10.71
2022-10-22T06:44:53.056Z,10.67
2022-10-22T06:45:24.704Z,10.67
2022-10-22T06:46:01.087Z,10.72
2022-10-22T06:46:32.971Z,10.74
2022-10-22T06:47:04.747Z,10.78
2022-10-22T06:47:36.283Z,10.70
2022-10-22T06:48:07.833Z,10.71
2022-10-22T06:48:40.255Z,10.69
2022-10-22T06:49:14.211Z,10.67
2022-10-22T06:49:45.885Z,10.73
2022-10-22T06:50:17.802Z,10.77
2022-10-22T06:50:49.323Z,10.84
2022-10-22T06:51:23.975Z,10.86
2022-10-22T06:51:55.551Z,10.89
2022-10-22T06:52:27.283Z,10.92
2022-10-22T06:52:58.796Z,10.91
2022-10-22T06:53:30.852Z,10.93
2022-10-22T06:54:02.458Z,10.89
2022-10-22T06:54:34.044Z,10.91
2022-10-22T06:55:06.019Z,10.93
2022-10-22T06:55:37.756Z,10.96
2022-10-22T06:56:11.485Z,10.99
2022-10-22T06:56:43.037Z,10.99
2022-10-22T06:57:14.742Z,10.99
2022-10-22T06:57:46.297Z,11.01
2022-10-22T06:58:17.827Z,11.09
2022-10-22T06:58:53.808Z,11.09
2022-10-22T06:59:25.383Z,11.11
2022-10-22T06:59:56.963Z,11.16
2022-10-22T07:00:28.741Z,11.21
2022-10-22T07:01:04.474Z,11.25
2022-10-22T07:01:36.785Z,11.35
2022-10-22T07:02:09.895Z,11.39
2022-10-22T07:02:41.975Z,11.44
2022-10-22T07:03:14.815Z,11.51
2022-10-22T07:03:46.634Z,11.57
2022-10-22T07:04:18.164Z,11.62
2022-10-22T07:04:49.758Z,11.67
2022-10-22T07:05:21.285Z,11.74
2022-10-22T07:05:53.101Z,11.76
2022-10-22T07:06:25.935Z,11.82
2022-10-22T07:06:57.625Z,11.91
2022-10-22T07:07:29.309Z,11.95
2022-10-22T07:08:00.949Z,11.99
2022-10-22T07:08:33.459Z,12.02
2022-10-22T07:09:05.294Z,12.02
2022-10-22T07:09:36.895Z,12.07
2022-10-22T07:10:08.864Z,12.10
2022-10-22T07:10:40.400Z,12.13
2022-10-22T07:11:25.566Z,12.21
2022-10-22T07:11:57.099Z,12.46
2022-10-22T07:12:28.641Z,12.32
2022-10-22T07:13:00.315Z,12.26
2022-10-22T07:13:31.913Z,12.19
2022-10-22T07:14:03.462Z,12.17
2022-10-22T07:14:35.023Z,12.13
2022-10-22T07:15:06.798Z,12.11
2022-10-22T07:15:38.505Z,12.06
2022-10-22T07:16:10.282Z,12.05
2022-10-22T07:16:43.100Z,12.06
2022-10-22T07:17:14.639Z,12.02
2022-10-22T07:17:46.135Z,12.06
2022-10-22T07:18:17.688Z,12.01
2022-10-22T07:18:49.323Z,12.05
2022-10-22T07:19:20.942Z,12.03
2022-10-22T07:19:52.557Z,12.03
2022-10-22T07:20:24.132Z,12.04
2022-10-22T07:20:55.720Z,12.02
2022-10-22T07:21:27.413Z,12.02
2022-10-22T07:21:59.018Z,12.02
2022-10-22T07:22:30.569Z,12.03
2022-10-22T07:23:02.089Z,12.10
2022-10-22T07:23:33.877Z,12.11
2022-10-22T07:24:05.703Z,12.03
2022-10-22T07:24:37.240Z,12.03
2022-10-22T07:25:09.137Z,12.04
2022-10-22T07:25:41.099Z,12.02
2022-10-22T07:26:14.632Z,12.06
2022-10-22T07:26:46.818Z,12.06